Time;durP1;ratioP1;P1;durP2;ratioP2;P2;SDS_P1;SDS_P2;PMS_P1;PMS_P2;Temp;Humidity;BMP_temperature;BMP_pressure;BME280_temperature;BME280_humidity;BME280_pressure;Samples;Min_cycle;Max_cycle;Signal;HPM_P1;HPM_P2
2023/08/03 00:02:03;;;;;;;8.57;1.67;;;17.50;99.90;;;;;;4986406;28;20038;-77
2023/08/03 00:04:29;;;;;;;6.03;1.58;;;17.50;99.90;;;;;;4990675;28;20043;-77
2023/08/03 00:06:54;;;;;;;4.68;1.67;;;17.50;99.90;;;;;;4980692;28;20104;-78
2023/08/03 00:09:20;;;;;;;4.68;1.58;;;17.50;99.90;;;;;;4986901;28;20038;-79
2023/08/03 00:11:47;;;;;;;6.45;1.58;;;17.50;99.90;;;;;;4980769;28;20441;-75
2023/08/03 00:14:13;;;;;;;5.57;1.58;;;17.50;99.90;;;;;;4992825;28;20054;-75
2023/08/03 00:16:38;;;;;;;5.55;1.75;;;17.50;99.90;;;;;;4989832;28;20046;-78
2023/08/03 00:19:04;;;;;;;3.70;1.55;;;17.40;99.90;;;;;;4988394;28;20042;-78
2023/08/03 00:21:29;;;;;;;4.93;1.40;;;17.40;99.90;;;;;;4985558;28;20042;-78
2023/08/03 00:23:55;;;;;;;6.85;1.98;;;17.40;99.90;;;;;;4992232;28;20033;-78
2023/08/03 00:26:21;;;;;;;7.15;1.58;;;17.40;99.90;;;;;;4990099;28;20038;-78
2023/08/03 00:28:46;;;;;;;7.53;1.90;;;17.40;99.90;;;;;;4978865;28;20050;-78
2023/08/03 00:31:12;;;;;;;6.40;1.45;;;17.40;99.90;;;;;;4986475;28;20639;-78
2023/08/03 00:33:38;;;;;;;5.53;1.90;;;17.40;99.90;;;;;;4980276;28;20718;-78
2023/08/03 00:36:03;;;;;;;5.22;1.67;;;17.40;99.90;;;;;;4969983;28;20493;-78
2023/08/03 00:38:29;;;;;;;4.38;1.50;;;17.40;99.90;;;;;;4969567;28;20085;-78
2023/08/03 00:40:55;;;;;;;5.20;1.45;;;17.40;99.90;;;;;;4989682;28;20046;-78
2023/08/03 00:43:20;;;;;;;5.93;1.98;;;17.30;99.90;;;;;;4987709;28;20496;-78
2023/08/03 00:45:46;;;;;;;7.57;2.10;;;17.30;99.90;;;;;;4980464;28;20414;-78
2023/08/03 00:48:12;;;;;;;5.50;1.48;;;17.30;99.90;;;;;;4991159;28;20057;-78
2023/08/03 00:50:38;;;;;;;6.63;1.85;;;17.30;99.90;;;;;;4973292;28;20133;-78
2023/08/03 00:53:04;;;;;;;6.63;1.80;;;17.30;99.90;;;;;;4982742;28;20117;-78
2023/08/03 00:55:29;;;;;;;4.32;1.30;;;17.30;99.90;;;;;;4981281;28;20098;-78
2023/08/03 00:57:55;;;;;;;5.63;1.60;;;17.30;99.90;;;;;;4980384;28;20061;-78
2023/08/03 01:00:21;;;;;;;4.60;1.33;;;17.20;99.90;;;;;;4983900;28;20051;-78
2023/08/03 01:02:46;;;;;;;3.78;1.27;;;17.20;99.90;;;;;;4970181;28;20548;-79
2023/08/03 01:05:12;;;;;;;3.22;1.65;;;17.20;99.90;;;;;;4979436;28;20047;-78
2023/08/03 01:07:38;;;;;;;4.90;1.40;;;17.20;99.90;;;;;;4982149;28;20184;-78
2023/08/03 01:10:04;;;;;;;4.15;1.60;;;17.20;99.90;;;;;;4980929;28;20052;-78
2023/08/03 01:12:30;;;;;;;3.95;1.45;;;17.10;99.90;;;;;;4985361;28;20038;-78
2023/08/03 01:14:56;;;;;;;4.63;1.42;;;17.10;99.90;;;;;;4985757;28;20133;-78
2023/08/03 01:17:21;;;;;;;6.43;1.65;;;17.10;99.90;;;;;;4982744;28;20489;-78
2023/08/03 01:19:47;;;;;;;4.68;1.50;;;17.10;99.90;;;;;;4979031;28;20038;-78
2023/08/03 01:22:13;;;;;;;5.20;1.42;;;17.20;99.90;;;;;;4979450;28;20066;-78
2023/08/03 01:24:39;;;;;;;4.45;1.30;;;17.10;99.90;;;;;;4982445;28;20038;-78
2023/08/03 01:27:05;;;;;;;5.38;1.40;;;17.10;99.90;;;;;;4967657;28;20089;-78
2023/08/03 01:29:31;;;;;;;5.38;1.48;;;17.10;99.90;;;;;;4989145;28;20058;-79
2023/08/03 01:31:59;;;;;;;4.05;1.20;;;17.00;99.90;;;;;;4986481;28;20101;-77
2023/08/03 01:34:25;;;;;;;;;;;17.10;99.90;;;;;;4978694;28;20049;-77
2023/08/03 01:36:52;;;;;;;5.07;1.40;;;17.10;99.90;;;;;;4981653;28;19925;-78
2023/08/03 01:39:18;;;;;;;;;;;17.00;99.90;;;;;;4971732;28;20413;-78
2023/08/03 01:41:43;;;;;;;3.33;1.42;;;17.00;99.90;;;;;;4982360;28;19922;-78
2023/08/03 01:44:18;;;;;;;4.32;1.27;;;17.00;99.90;;;;;;4984319;28;20051;-78
2023/08/03 01:46:43;;;;;;;4.20;1.20;;;17.00;99.90;;;;;;4982088;28;20046;-78
2023/08/03 01:49:09;;;;;;;5.35;1.50;;;17.00;99.90;;;;;;4976690;28;20054;-78
2023/08/03 01:51:36;;;;;;;2.42;1.30;;;17.00;99.90;;;;;;4989745;28;20109;-77
2023/08/03 01:54:01;;;;;;;3.00;1.10;;;17.00;99.90;;;;;;4982831;28;20054;-78
2023/08/03 01:56:27;;;;;;;3.38;1.45;;;17.00;99.90;;;;;;4979854;28;20050;-77
2023/08/03 01:58:53;;;;;;;1.98;1.13;;;17.00;99.90;;;;;;4983517;28;20056;-78
2023/08/03 02:01:18;;;;;;;2.90;1.10;;;17.00;99.90;;;;;;4981215;28;20943;-78
2023/08/03 02:03:44;;;;;;;2.55;1.05;;;17.00;99.90;;;;;;4977366;28;20043;-78
2023/08/03 02:06:10;;;;;;;3.88;1.35;;;17.00;99.90;;;;;;4978002;28;20046;-77
2023/08/03 02:08:35;;;;;;;3.05;1.17;;;17.00;99.90;;;;;;4982697;28;20034;-78
2023/08/03 02:11:01;;;;;;;3.22;1.17;;;17.00;99.90;;;;;;4968458;28;20042;-77
2023/08/03 02:13:26;;;;;;;3.33;1.33;;;17.00;99.90;;;;;;4982137;28;20046;-77
2023/08/03 02:15:52;;;;;;;3.10;1.40;;;17.00;99.90;;;;;;4962704;28;20070;-77
2023/08/03 02:18:18;;;;;;;2.15;1.23;;;17.00;99.90;;;;;;4963230;28;20449;-77
2023/08/03 02:20:43;;;;;;;2.10;1.20;;;17.00;99.90;;;;;;4969759;28;20057;-77
2023/08/03 02:23:09;;;;;;;3.10;1.48;;;17.00;99.90;;;;;;4984903;28;20053;-77
2023/08/03 02:25:35;;;;;;;3.85;1.20;;;17.00;99.90;;;;;;4984242;28;20115;-78
2023/08/03 02:28:00;;;;;;;2.65;1.48;;;17.00;99.90;;;;;;4980111;28;20077;-77
2023/08/03 02:30:26;;;;;;;1.95;1.20;;;17.00;99.90;;;;;;4982486;28;20188;-77
2023/08/03 02:32:52;;;;;;;2.08;1.60;;;16.90;99.90;;;;;;4966782;28;20129;-77
2023/08/03 02:35:17;;;;;;;2.90;1.70;;;17.00;99.90;;;;;;4983881;28;20042;-77
2023/08/03 02:37:43;;;;;;;3.20;1.90;;;16.90;99.90;;;;;;4980785;28;20064;-77
2023/08/03 02:40:09;;;;;;;3.22;1.98;;;16.90;99.90;;;;;;4978668;28;20125;-77
2023/08/03 02:42:36;;;;;;;3.58;2.20;;;17.00;99.90;;;;;;4984077;28;20066;-77
2023/08/03 02:45:02;;;;;;;3.78;2.10;;;17.00;99.90;;;;;;4968652;28;20038;-77
2023/08/03 02:47:27;;;;;;;3.40;2.33;;;16.90;99.90;;;;;;4979990;28;21942;-78
2023/08/03 02:49:53;;;;;;;4.78;2.40;;;16.90;99.90;;;;;;4977447;28;20043;-77
2023/08/03 02:52:19;;;;;;;4.13;2.35;;;17.00;99.90;;;;;;4975135;28;20086;-77
2023/08/03 02:54:44;;;;;;;5.63;2.83;;;17.00;99.90;;;;;;4980708;28;20390;-78
2023/08/03 02:57:10;;;;;;;5.43;3.10;;;17.00;99.90;;;;;;4966023;28;20045;-77
2023/08/03 02:59:36;;;;;;;4.20;2.70;;;17.00;99.90;;;;;;4971878;28;20050;-77
2023/08/03 03:02:01;;;;;;;5.93;2.65;;;17.00;99.90;;;;;;4978811;28;20058;-77
2023/08/03 03:04:27;;;;;;;4.47;2.90;;;17.00;99.90;;;;;;4979050;28;20064;-77
2023/08/03 03:06:53;;;;;;;6.03;3.03;;;17.00;99.90;;;;;;4974315;28;20784;-77
2023/08/03 03:09:19;;;;;;;5.72;3.38;;;17.00;99.90;;;;;;4979383;28;20049;-77
2023/08/03 03:11:44;;;;;;;5.35;2.72;;;17.00;99.90;;;;;;4980301;28;20050;-77
2023/08/03 03:14:10;;;;;;;6.25;2.95;;;17.00;99.90;;;;;;4973145;28;20058;-77
2023/08/03 03:16:35;;;;;;;5.45;3.25;;;17.00;99.90;;;;;;4971237;28;20448;-77
2023/08/03 03:19:01;;;;;;;6.10;3.50;;;17.00;99.90;;;;;;4979811;28;20472;-77
2023/08/03 03:21:27;;;;;;;5.47;3.08;;;16.90;99.90;;;;;;4980143;28;20035;-77
2023/08/03 03:23:53;;;;;;;8.25;3.33;;;16.90;99.90;;;;;;4990164;28;20038;-79
2023/08/03 03:26:18;;;;;;;7.65;3.58;;;16.90;99.90;;;;;;4971026;28;20096;-77
2023/08/03 03:28:44;;;;;;;8.43;3.65;;;16.90;99.90;;;;;;4975273;28;20140;-78
2023/08/03 03:31:10;;;;;;;6.80;3.55;;;16.90;99.90;;;;;;4976936;28;20045;-78
2023/08/03 03:33:35;;;;;;;8.40;3.90;;;16.90;99.90;;;;;;4980343;28;20474;-78
2023/08/03 03:36:01;;;;;;;8.15;3.83;;;16.90;99.90;;;;;;4984875;28;20093;-78
2023/08/03 03:38:27;;;;;;;5.75;3.47;;;16.90;99.90;;;;;;4968799;28;20074;-78
2023/08/03 03:40:52;;;;;;;7.90;3.80;;;16.90;99.90;;;;;;4981444;28;20053;-78
2023/08/03 03:43:18;;;;;;;7.53;3.85;;;16.90;99.90;;;;;;4980511;28;20058;-78
2023/08/03 03:45:43;;;;;;;8.38;3.90;;;16.90;99.90;;;;;;4984957;28;20087;-78
2023/08/03 03:48:09;;;;;;;7.88;3.50;;;16.90;99.90;;;;;;4982816;28;20121;-78
2023/08/03 03:50:35;;;;;;;9.73;3.90;;;16.90;99.90;;;;;;4975743;28;20046;-78
2023/08/03 03:53:01;;;;;;;7.63;3.80;;;16.90;99.90;;;;;;4967841;28;20050;-78
2023/08/03 03:55:27;;;;;;;10.98;4.30;;;16.90;99.90;;;;;;4982988;28;20049;-78
2023/08/03 03:57:52;;;;;;;8.15;3.72;;;16.90;99.90;;;;;;4979569;28;20054;-78
2023/08/03 04:00:18;;;;;;;10.45;3.80;;;16.90;99.90;;;;;;4978716;28;20433;-78
2023/08/03 04:02:44;;;;;;;8.55;3.90;;;16.90;99.90;;;;;;4977976;28;20126;-77
2023/08/03 04:05:09;;;;;;;11.02;3.90;;;16.90;99.90;;;;;;4980825;28;20126;-78
2023/08/03 04:07:35;;;;;;;9.50;4.15;;;16.90;99.90;;;;;;4976835;28;20040;-78
2023/08/03 04:10:01;;;;;;;11.15;4.20;;;16.90;99.90;;;;;;4968064;28;20054;-78
2023/08/03 04:12:26;;;;;;;12.40;4.00;;;16.90;99.90;;;;;;4971624;28;20046;-78
2023/08/03 04:14:52;;;;;;;10.02;3.80;;;16.90;99.90;;;;;;4986938;28;20283;-78
2023/08/03 04:17:17;;;;;;;8.25;3.80;;;16.90;99.90;;;;;;4987200;28;20065;-78
2023/08/03 04:19:43;;;;;;;10.80;3.80;;;16.90;99.90;;;;;;4966325;28;20081;-78
2023/08/03 04:22:09;;;;;;;9.63;4.20;;;16.90;99.90;;;;;;4984460;28;20050;-78
2023/08/03 04:24:34;;;;;;;8.93;4.40;;;16.90;99.90;;;;;;4979860;28;20729;-78
2023/08/03 04:27:00;;;;;;;8.95;3.83;;;16.80;99.90;;;;;;4965213;28;20366;-78
2023/08/03 04:29:26;;;;;;;6.70;3.40;;;16.90;99.90;;;;;;4974935;28;20470;-78
2023/08/03 04:31:51;;;;;;;13.00;4.32;;;16.90;99.90;;;;;;4981364;28;20458;-78
2023/08/03 04:34:17;;;;;;;9.85;3.75;;;16.80;99.90;;;;;;4971975;28;20053;-78
2023/08/03 04:36:45;;;;;;;8.23;3.53;;;16.90;99.90;;;;;;4978419;28;20058;-78
2023/08/03 04:39:10;;;;;;;9.60;3.70;;;16.90;99.90;;;;;;4984748;28;20052;-78
2023/08/03 04:41:36;;;;;;;9.88;4.38;;;16.90;99.90;;;;;;4984291;28;20716;-78
2023/08/03 04:44:02;;;;;;;11.60;4.35;;;16.90;99.90;;;;;;4985741;28;20069;-78
2023/08/03 04:46:27;;;;;;;9.63;3.85;;;16.90;99.90;;;;;;4976180;28;20046;-78
2023/08/03 04:48:53;;;;;;;11.48;4.00;;;16.90;99.90;;;;;;4981553;28;20038;-78
2023/08/03 04:51:18;;;;;;;10.77;4.18;;;16.90;99.90;;;;;;4986463;28;20069;-78
2023/08/03 04:53:44;;;;;;;11.30;4.03;;;17.00;99.90;;;;;;4981720;28;20050;-78
2023/08/03 04:56:10;;;;;;;10.35;4.45;;;16.90;99.90;;;;;;4975056;28;20050;-78
2023/08/03 04:58:36;;;;;;;10.82;4.68;;;17.00;99.90;;;;;;4981876;28;20445;-76
2023/08/03 05:01:01;;;;;;;9.88;4.13;;;17.00;99.90;;;;;;4984286;28;20054;-76
2023/08/03 05:03:27;;;;;;;9.73;4.15;;;17.00;99.90;;;;;;4987611;28;20506;-79
2023/08/03 05:05:53;;;;;;;9.50;4.55;;;17.00;99.90;;;;;;4979867;28;20141;-75
2023/08/03 05:08:22;;;;;;;9.00;4.57;;;17.00;99.90;;;;;;4990029;28;20035;-76
2023/08/03 05:10:48;;;;;;;8.50;4.35;;;17.00;99.90;;;;;;4980688;28;20046;-75
2023/08/03 05:13:16;;;;;;;8.80;4.43;;;17.00;99.90;;;;;;4972852;28;20040;-76
2023/08/03 05:15:41;;;;;;;;;;;17.10;99.90;;;;;;4980923;28;20489;-73
2023/08/03 05:18:07;;;;;;;8.50;4.93;;;17.10;99.90;;;;;;4980628;28;19921;-75
2023/08/03 05:20:32;;;;;;;12.45;5.60;;;17.10;99.90;;;;;;4986206;28;20047;-75
2023/08/03 05:22:59;;;;;;;11.23;4.93;;;17.10;99.90;;;;;;4971807;28;20122;-76
2023/08/03 05:25:24;;;;;;;10.30;4.70;;;17.20;99.90;;;;;;4988461;28;20052;-76
2023/08/03 05:27:50;;;;;;;12.02;5.70;;;17.20;99.90;;;;;;4980419;28;20406;-77
2023/08/03 05:30:16;;;;;;;11.60;5.80;;;17.20;99.90;;;;;;4981498;28;20533;-76
2023/08/03 05:32:41;;;;;;;9.50;5.50;;;17.20;99.90;;;;;;4980700;28;20117;-77
2023/08/03 05:35:07;;;;;;;9.95;5.93;;;17.30;99.90;;;;;;4960791;28;20113;-77
2023/08/03 05:37:33;;;;;;;10.77;5.57;;;17.30;99.90;;;;;;4982894;28;20038;-76
2023/08/03 05:40:04;;;;;;;9.70;5.85;;;17.30;99.90;;;;;;4967858;28;20140;-76
2023/08/03 05:42:36;;;;;;;9.45;5.93;;;17.30;99.90;;;;;;4986195;28;20034;-77
2023/08/03 05:45:14;;;;;;;10.32;5.65;;;17.30;99.90;;;;;;4969903;28;20050;-76
2023/08/03 05:47:40;;;;;;;11.02;5.78;;;17.40;99.90;;;;;;4985882;28;20045;-76
2023/08/03 05:50:13;;;;;;;13.70;6.78;;;17.40;99.90;;;;;;4988793;28;20038;-77
2023/08/03 05:52:39;;;;;;;9.20;5.15;;;17.40;99.90;;;;;;4988821;28;20498;-77
2023/08/03 05:55:09;;;;;;;10.20;5.78;;;17.40;99.90;;;;;;4977479;28;20474;-77
2023/08/03 05:57:35;;;;;;;11.82;6.20;;;17.40;99.90;;;;;;4987060;28;20039;-76
2023/08/03 06:00:03;;;;;;;15.00;6.50;;;17.40;99.90;;;;;;4980276;28;20510;-76
2023/08/03 06:02:33;;;;;;;12.27;5.50;;;17.40;99.90;;;;;;4987677;28;20045;-77
2023/08/03 06:04:59;;;;;;;13.40;6.25;;;17.50;99.90;;;;;;4988867;28;20046;-77
2023/08/03 06:07:26;;;;;;;10.63;5.60;;;17.50;99.90;;;;;;4989943;28;20046;-77
2023/08/03 06:09:52;;;;;;;12.48;6.90;;;17.50;99.90;;;;;;4987987;28;20101;-77
2023/08/03 06:12:18;;;;;;;11.52;7.18;;;17.50;99.90;;;;;;4989525;28;20062;-77
2023/08/03 06:14:44;;;;;;;12.25;6.82;;;17.60;99.90;;;;;;4984641;28;20122;-77
2023/08/03 06:17:10;;;;;;;11.60;6.88;;;17.60;99.90;;;;;;4982511;28;20578;-77
2023/08/03 06:19:36;;;;;;;15.45;7.35;;;17.50;99.90;;;;;;4988323;28;20371;-78
2023/08/03 06:22:04;;;;;;;11.93;7.10;;;17.50;99.90;;;;;;4983447;28;20053;-78
2023/08/03 06:24:30;;;;;;;14.80;8.75;;;17.50;99.90;;;;;;4989010;28;20046;-77
2023/08/03 06:26:58;;;;;;;12.07;7.85;;;17.50;99.90;;;;;;4988312;28;20046;-76
2023/08/03 06:29:23;;;;;;;14.68;8.40;;;17.50;99.90;;;;;;4967759;28;20042;-76
2023/08/03 06:31:50;;;;;;;14.93;8.13;;;17.60;99.90;;;;;;4986914;28;20421;-79
2023/08/03 06:34:17;;;;;;;10.02;7.43;;;17.50;99.90;;;;;;4988118;28;20042;-78
2023/08/03 06:36:44;;;;;;;12.05;7.68;;;17.50;99.90;;;;;;4990066;28;20050;-77
2023/08/03 06:39:09;;;;;;;14.97;7.77;;;17.60;99.90;;;;;;4988858;28;20077;-77
2023/08/03 06:41:35;;;;;;;13.07;7.95;;;17.60;99.90;;;;;;4986777;28;20497;-75
2023/08/03 06:44:01;;;;;;;14.43;7.57;;;17.60;99.90;;;;;;4981615;28;20081;-76
2023/08/03 06:46:27;;;;;;;14.73;7.28;;;17.60;99.90;;;;;;4978447;28;20501;-83
2023/08/03 06:48:54;;;;;;;13.25;7.35;;;17.70;99.90;;;;;;4981833;28;20035;-81
2023/08/03 06:51:20;;;;;;;11.38;7.40;;;17.70;99.90;;;;;;4983087;28;20039;-78
2023/08/03 06:53:49;;;;;;;10.48;6.68;;;17.70;99.90;;;;;;4963964;28;20054;-80
2023/08/03 06:56:15;;;;;;;14.15;7.47;;;17.80;99.90;;;;;;4974522;28;20066;-78
2023/08/03 06:58:41;;;;;;;12.50;6.72;;;17.80;99.90;;;;;;4968545;28;20082;-76
2023/08/03 07:01:07;;;;;;;13.57;7.20;;;17.80;99.90;;;;;;4985408;28;20121;-78
2023/08/03 07:03:32;;;;;;;11.25;6.53;;;17.80;99.90;;;;;;4974465;28;20141;-82
2023/08/03 07:05:59;;;;;;;10.55;6.63;;;17.90;99.90;;;;;;4960806;28;20039;-78
2023/08/03 07:08:25;;;;;;;11.73;7.85;;;17.90;99.90;;;;;;4986223;28;20046;-81
2023/08/03 07:10:50;;;;;;;11.13;6.95;;;17.90;99.90;;;;;;4972146;28;20409;-84
2023/08/03 07:13:16;;;;;;;12.23;7.25;;;17.90;99.90;;;;;;4975930;28;20122;-86
2023/08/03 07:15:41;;;;;;;13.43;6.53;;;17.90;99.90;;;;;;4973593;28;20411;-81
2023/08/03 07:18:07;;;;;;;12.30;6.60;;;18.00;99.90;;;;;;4969819;28;20050;-78
2023/08/03 07:20:34;;;;;;;12.40;6.80;;;18.10;99.90;;;;;;4984426;28;20073;-79
2023/08/03 07:23:00;;;;;;;13.60;6.50;;;18.20;99.90;;;;;;4988460;28;20047;-79
2023/08/03 07:25:26;;;;;;;10.07;6.18;;;18.20;99.90;;;;;;4975449;28;20121;-82
2023/08/03 07:27:52;;;;;;;12.90;6.20;;;18.30;99.90;;;;;;4982097;28;20446;-79
2023/08/03 07:30:19;;;;;;;14.05;6.22;;;18.40;99.90;;;;;;4964633;28;20089;-83
2023/08/03 07:32:45;;;;;;;10.10;6.67;;;18.40;99.90;;;;;;4983165;28;20058;-77
2023/08/03 07:35:10;;;;;;;12.82;6.78;;;18.50;99.90;;;;;;4964611;28;20042;-77
2023/08/03 07:37:36;;;;;;;15.90;6.80;;;18.50;99.90;;;;;;4980479;28;20042;-77
2023/08/03 07:40:02;;;;;;;12.75;6.05;;;18.70;99.90;;;;;;4979285;28;20057;-76
2023/08/03 07:42:29;;;;;;;11.25;5.75;;;18.70;99.90;;;;;;4986739;28;20532;-76
2023/08/03 07:44:55;;;;;;;11.20;6.78;;;18.80;99.90;;;;;;4972574;28;20045;-79
2023/08/03 07:47:21;;;;;;;11.15;6.05;;;18.90;99.90;;;;;;4980260;28;20046;-77
2023/08/03 07:49:46;;;;;;;12.65;5.95;;;18.90;99.90;;;;;;4992687;28;20042;-77
2023/08/03 07:52:12;;;;;;;10.27;5.13;;;19.00;99.90;;;;;;4990559;28;20478;-78
2023/08/03 07:54:38;;;;;;;10.27;5.30;;;19.10;99.90;;;;;;4982340;28;20089;-78
2023/08/03 07:57:04;;;;;;;10.13;4.90;;;19.20;99.90;;;;;;4980332;28;20397;-75
2023/08/03 07:59:30;;;;;;;7.45;4.72;;;19.30;99.90;;;;;;4987696;28;20058;-80
2023/08/03 08:01:55;;;;;;;9.32;4.10;;;19.20;99.90;;;;;;4987580;28;20035;-80
2023/08/03 08:04:21;;;;;;;9.60;3.70;;;19.30;99.90;;;;;;4982814;28;20606;-79
2023/08/03 08:06:47;;;;;;;7.65;3.88;;;19.40;99.90;;;;;;4982107;28;20046;-77
2023/08/03 08:09:12;;;;;;;9.23;3.33;;;19.40;99.90;;;;;;4979230;28;20079;-83
2023/08/03 08:11:38;;;;;;;8.40;3.10;;;19.40;99.90;;;;;;4979324;28;20047;-72
2023/08/03 08:14:04;;;;;;;7.38;2.97;;;19.50;99.90;;;;;;4973729;28;20046;-72
2023/08/03 08:16:30;;;;;;;8.35;3.40;;;19.50;99.90;;;;;;4975788;28;20042;-74
2023/08/03 08:18:56;;;;;;;8.77;3.22;;;19.60;99.90;;;;;;4987917;28;20083;-77
2023/08/03 08:21:21;;;;;;;8.38;2.80;;;19.80;99.90;;;;;;4983893;28;20367;-81
2023/08/03 08:23:47;;;;;;;8.15;2.60;;;19.80;99.90;;;;;;4982965;28;20113;-81
2023/08/03 08:26:17;;;;;;;5.63;2.25;;;19.80;99.90;;;;;;4982047;28;20046;-80
2023/08/03 08:28:45;;;;;;;6.25;2.25;;;19.80;99.90;;;;;;4984935;28;20449;-80
2023/08/03 08:31:11;;;;;;;6.10;2.15;;;19.70;99.90;;;;;;4975265;28;20094;-75
2023/08/03 08:33:37;;;;;;;7.82;2.88;;;19.70;99.90;;;;;;4981002;28;20054;-75
2023/08/03 08:36:03;;;;;;;7.47;2.80;;;19.70;99.90;;;;;;4982364;28;20070;-78
2023/08/03 08:38:30;;;;;;;7.03;2.65;;;19.60;99.90;;;;;;4978607;28;20077;-77
2023/08/03 08:41:00;;;;;;;7.63;2.20;;;19.60;99.90;;;;;;4974930;28;20061;-78
2023/08/03 08:43:25;;;;;;;4.80;2.05;;;19.50;99.90;;;;;;4969036;28;20599;-78
2023/08/03 08:45:52;;;;;;;6.22;2.00;;;19.50;99.90;;;;;;4980571;28;20047;-82
2023/08/03 08:48:18;;;;;;;6.70;1.83;;;19.50;99.90;;;;;;4981071;28;20049;-84
2023/08/03 08:50:43;;;;;;;6.10;1.60;;;19.60;99.90;;;;;;4987459;28;20409;-87
2023/08/03 08:53:12;;;;;;;6.88;1.52;;;19.70;99.90;;;;;;4978162;28;20389;-81
2023/08/03 08:55:37;;;;;;;5.88;1.48;;;19.90;99.90;;;;;;4957138;28;20126;-79
2023/08/03 08:58:03;;;;;;;3.78;1.35;;;20.00;99.90;;;;;;4981495;28;20125;-80
2023/08/03 09:00:28;;;;;;;4.82;1.50;;;20.10;99.90;;;;;;4983304;28;20089;-86
2023/08/03 09:02:56;;;;;;;7.47;2.17;;;20.30;99.90;;;;;;4987692;28;20035;-79
2023/08/03 09:05:23;;;;;;;;;;;20.40;99.90;;;;;;4982061;28;20045;-79
2023/08/03 09:08:14;;;;;;;6.38;1.73;;;20.60;99.90;;;;;;4978513;28;19922;-88
2023/08/03 09:11:06;;;;;;;4.72;1.48;;;20.60;99.90;;;;;;4980444;28;20577;-79
2023/08/03 09:13:35;;;;;;;8.10;2.40;;;20.50;99.90;;;;;;4955113;28;20054;-84
2023/08/03 09:16:01;;;;;;;6.63;1.63;;;20.50;99.90;;;;;;4986850;28;20042;-85
2023/08/03 09:18:29;;;;;;;8.90;3.28;;;20.30;99.90;;;;;;4969426;28;20575;-85
2023/08/03 09:21:13;;;;;;;11.68;5.28;;;20.30;99.90;;;;;;4983996;28;20508;-82
2023/08/03 09:23:39;;;;;;;5.57;2.20;;;20.30;99.90;;;;;;4975770;28;20082;-84
2023/08/03 09:26:05;;;;;;;4.78;1.33;;;20.40;99.90;;;;;;4986515;28;20077;-81
2023/08/03 09:28:35;;;;;;;4.73;1.33;;;20.50;99.90;;;;;;4973109;28;20694;-80
2023/08/03 09:31:01;;;;;;;4.63;1.00;;;20.70;99.90;;;;;;4976853;28;20351;-81
2023/08/03 09:33:27;;;;;;;2.97;1.00;;;20.70;99.90;;;;;;4974527;28;20054;-81
2023/08/03 09:36:10;;;;;;;3.80;1.02;;;20.80;99.90;;;;;;4974781;28;20068;-82
2023/08/03 09:38:36;;;;;;;4.68;1.27;;;20.80;99.90;;;;;;4980991;28;20065;-82
2023/08/03 09:41:02;;;;;;;4.85;1.40;;;20.90;99.90;;;;;;4973912;28;20058;-82
2023/08/03 09:43:28;;;;;;;3.60;1.00;;;21.00;99.90;;;;;;4969961;28;20058;-83
2023/08/03 09:45:55;;;;;;;4.32;1.40;;;21.20;99.90;;;;;;4981251;28;20068;-83
2023/08/03 09:48:22;;;;;;;4.03;1.00;;;21.30;99.90;;;;;;4981981;28;20038;-80
2023/08/03 09:50:58;;;;;;;3.58;1.05;;;21.30;99.90;;;;;;4979624;28;20046;-80
2023/08/03 09:53:37;;;;;;;4.75;1.00;;;21.40;99.90;;;;;;4981094;28;20105;-79
2023/08/03 09:56:05;;;;;;;4.35;0.95;;;21.50;99.90;;;;;;4958844;28;20054;-80
2023/08/03 09:58:51;;;;;;;6.50;0.93;;;21.60;99.90;;;;;;4987502;28;20057;-80
2023/08/03 10:01:22;;;;;;;5.72;1.50;;;21.70;99.90;;;;;;4977945;28;20128;-83
2023/08/03 10:03:53;;;;;;;3.85;1.00;;;21.80;99.90;;;;;;4983980;28;20039;-72
2023/08/03 10:06:23;;;;;;;2.90;1.00;;;21.80;99.90;;;;;;4979581;28;20054;-74
2023/08/03 10:09:01;;;;;;;2.28;0.90;;;21.70;99.90;;;;;;4958458;28;20073;-75
2023/08/03 10:11:41;;;;;;;3.17;0.90;;;21.80;99.90;;;;;;4968213;28;20046;-78
2023/08/03 10:14:09;;;;;;;2.92;0.82;;;21.80;99.90;;;;;;4979386;28;20800;-75
2023/08/03 10:16:37;;;;;;;3.97;1.00;;;21.90;99.90;;;;;;4965139;28;20395;-77
2023/08/03 10:19:03;;;;;;;3.53;0.90;;;21.90;99.90;;;;;;4988589;28;20148;-76
2023/08/03 10:21:30;;;;;;;4.53;1.13;;;21.90;99.90;;;;;;4976018;28;20050;-77
2023/08/03 10:24:17;;;;;;;2.88;1.40;;;21.90;99.90;;;;;;4975019;28;20038;-80
2023/08/03 10:26:48;;;;;;;5.03;1.15;;;22.00;99.90;;;;;;4985575;28;20054;-81
2023/08/03 10:29:14;;;;;;;5.95;1.58;;;22.20;99.90;;;;;;4973840;28;20121;-82
2023/08/03 10:31:54;;;;;;;4.10;1.35;;;22.20;99.90;;;;;;4979179;28;20125;-83
2023/08/03 10:34:28;;;;;;;5.80;1.20;;;22.40;99.90;;;;;;4979358;28;20058;-78
2023/08/03 10:36:56;;;;;;;3.63;1.10;;;22.40;99.90;;;;;;4977353;28;20046;-75
2023/08/03 10:39:46;;;;;;;4.32;1.08;;;22.30;99.90;;;;;;4975723;28;20039;-76
2023/08/03 10:42:22;;;;;;;4.43;1.15;;;22.10;99.90;;;;;;4953900;28;20055;-75
2023/08/03 10:44:48;;;;;;;5.28;1.15;;;21.90;99.90;;;;;;4979710;28;20120;-74
2023/08/03 10:47:29;;;;;;;4.85;1.05;;;21.80;99.90;;;;;;4978405;28;20459;-74
2023/08/03 10:49:58;;;;;;;6.75;1.67;;;21.60;99.90;;;;;;4978049;28;20062;-76
2023/08/03 10:52:29;;;;;;;6.47;1.38;;;21.40;99.90;;;;;;4983107;28;20058;-75
2023/08/03 10:54:57;;;;;;;3.42;1.23;;;21.20;99.90;;;;;;4989385;28;20050;-75
2023/08/03 10:57:26;;;;;;;4.78;1.20;;;21.10;99.90;;;;;;4973196;28;20471;-74
2023/08/03 10:59:55;;;;;;;3.13;1.00;;;21.00;99.90;;;;;;4975766;28;20055;-74
2023/08/03 11:02:30;;;;;;;2.70;0.95;;;20.90;99.90;;;;;;4974926;28;20043;-74
2023/08/03 11:05:00;;;;;;;2.85;0.90;;;20.80;99.90;;;;;;4963514;28;20283;-74
2023/08/03 11:07:30;;;;;;;4.78;1.20;;;20.80;99.90;;;;;;4972913;28;20055;-83
2023/08/03 11:09:56;;;;;;;3.58;0.90;;;20.90;99.90;;;;;;4983562;28;20089;-83
2023/08/03 11:12:23;;;;;;;5.15;1.20;;;21.00;99.90;;;;;;4964766;28;20084;-74
2023/08/03 11:14:52;;;;;;;3.33;1.10;;;21.20;99.90;;;;;;4984516;28;20046;-74
2023/08/03 11:17:24;;;;;;;6.68;1.23;;;21.40;99.90;;;;;;4983959;28;20046;-78
2023/08/03 11:19:51;;;;;;;4.65;1.10;;;21.70;99.90;;;;;;4972392;28;20113;-76
2023/08/03 11:22:17;;;;;;;;;;;21.90;99.90;;;;;;4975746;28;20046;-75
2023/08/03 11:24:44;;;;;;;4.50;1.30;;;22.00;99.90;;;;;;4980473;28;19926;-75
2023/08/03 11:27:12;;;;;;;4.68;1.20;;;22.20;99.90;;;;;;4982078;28;20786;-80
2023/08/03 11:29:38;;;;;;;5.85;1.20;;;22.20;99.90;;;;;;4980756;28;20483;-80
2023/08/03 11:32:05;;;;;;;3.58;1.10;;;22.30;99.90;;;;;;4969926;28;20043;-80
2023/08/03 11:34:32;;;;;;;5.45;1.20;;;22.40;99.90;;;;;;4969104;28;20089;-80
2023/08/03 11:36:58;;;;;;;3.50;1.05;;;22.50;99.90;;;;;;4970100;28;20671;-80
2023/08/03 11:39:23;;;;;;;4.38;1.25;;;22.50;99.90;;;;;;4968783;28;20086;-80
2023/08/03 11:41:53;;;;;;;4.07;1.27;;;22.60;99.90;;;;;;4978771;28;20070;-77
2023/08/03 11:44:21;;;;;;;6.85;1.40;;;22.60;99.90;;;;;;4976632;28;20081;-78
2023/08/03 11:46:49;;;;;;;4.68;1.38;;;22.60;99.90;;;;;;4979866;28;20505;-78
2023/08/03 11:49:16;;;;;;;4.22;1.35;;;22.60;99.90;;;;;;4970533;28;20418;-76
2023/08/03 11:51:42;;;;;;;4.15;1.20;;;22.40;99.90;;;;;;4977376;28;20046;-78
2023/08/03 11:54:10;;;;;;;6.68;1.40;;;22.40;99.90;;;;;;4969212;28;20061;-77
2023/08/03 11:56:37;;;;;;;4.45;1.25;;;22.40;99.90;;;;;;4974748;28;20051;-77
2023/08/03 11:59:08;;;;;;;5.55;1.63;;;22.50;99.90;;;;;;4977368;28;20081;-76
2023/08/03 12:01:44;;;;;;;7.95;1.60;;;22.60;99.90;;;;;;4968160;28;20088;-76
2023/08/03 12:04:10;;;;;;;7.82;1.80;;;22.60;99.90;;;;;;4965880;28;20126;-75
2023/08/03 12:06:53;;;;;;;3.97;1.47;;;22.60;99.90;;;;;;4970553;28;20047;-76
2023/08/03 12:09:22;;;;;;;6.15;1.70;;;22.70;99.90;;;;;;4980730;28;20114;-76
2023/08/03 12:11:48;;;;;;;5.38;1.30;;;22.80;99.90;;;;;;4961972;28;20050;-76
2023/08/03 12:14:14;;;;;;;4.03;1.30;;;22.90;99.90;;;;;;4974125;28;20516;-75
2023/08/03 12:16:39;;;;;;;3.20;1.08;;;23.00;99.90;;;;;;4955525;28;20055;-78
2023/08/03 12:19:07;;;;;;;4.78;0.98;;;23.00;99.90;;;;;;4984917;28;20046;-79
2023/08/03 12:21:37;;;;;;;5.28;1.48;;;23.00;99.90;;;;;;4963248;28;20061;-82
2023/08/03 12:24:04;;;;;;;4.65;1.10;;;22.90;99.90;;;;;;4969174;28;20053;-80
2023/08/03 12:26:30;;;;;;;;;;;22.90;99.90;;;;;;4958917;28;20054;-81
2023/08/03 12:28:56;;;;;;;5.18;1.45;;;22.90;99.90;;;;;;4980834;28;19952;-77
2023/08/03 12:31:23;;;;;;;5.53;1.13;;;22.80;99.90;;;;;;4975311;28;20042;-80
2023/08/03 12:33:48;;;;;;;4.18;1.00;;;22.80;99.90;;;;;;4974245;28;20063;-77
2023/08/03 12:36:15;;;;;;;6.15;1.08;;;22.90;99.90;;;;;;4956824;28;20084;-85
2023/08/03 12:38:41;;;;;;;2.63;0.75;;;22.90;99.90;;;;;;4985279;28;20062;-88
2023/08/03 12:41:06;;;;;;;3.10;1.08;;;22.90;99.90;;;;;;4962954;28;20336;-88
2023/08/03 12:43:32;;;;;;;1.70;0.80;;;22.90;99.90;;;;;;4976475;28;20042;-85
2023/08/03 12:45:59;;;;;;;2.10;0.93;;;22.90;99.90;;;;;;4977481;28;20046;-87